sensor_id;sensor_type;location;lat;lon;timestamp;temperature;humidity
1379;DHT22;683;48.738;9.226;2022-09-03T00:01:02;16.60;77.00
1379;DHT22;683;48.738;9.226;2022-09-03T00:03:33;16.60;76.90
1379;DHT22;683;48.738;9.226;2022-09-03T00:06:10;16.60;76.90
1379;DHT22;683;48.738;9.226;2022-09-03T00:08:45;16.70;76.80
1379;DHT22;683;48.738;9.226;2022-09-03T00:11:18;16.80;76.40
1379;DHT22;683;48.738;9.226;2022-09-03T00:13:51;16.80;76.80
1379;DHT22;683;48.738;9.226;2022-09-03T00:16:24;16.70;76.90
1379;DHT22;683;48.738;9.226;2022-09-03T00:18:56;16.70;76.40
1379;DHT22;683;48.738;9.226;2022-09-03T00:21:35;16.70;76.90
1379;DHT22;683;48.738;9.226;2022-09-03T00:24:08;16.80;77.00
1379;DHT22;683;48.738;9.226;2022-09-03T00:26:39;16.80;77.10
1379;DHT22;683;48.738;9.226;2022-09-03T00:29:11;16.80;76.80
1379;DHT22;683;48.738;9.226;2022-09-03T00:31:43;16.80;76.90
1379;DHT22;683;48.738;9.226;2022-09-03T00:34:18;16.80;77.10
1379;DHT22;683;48.738;9.226;2022-09-03T00:36:48;16.80;77.80
1379;DHT22;683;48.738;9.226;2022-09-03T00:39:20;16.80;77.40
1379;DHT22;683;48.738;9.226;2022-09-03T00:41:59;16.70;77.80
1379;DHT22;683;48.738;9.226;2022-09-03T00:44:52;16.70;77.70
1379;DHT22;683;48.738;9.226;2022-09-03T00:47:29;16.70;77.60
1379;DHT22;683;48.738;9.226;2022-09-03T00:50:06;16.70;77.80
1379;DHT22;683;48.738;9.226;2022-09-03T00:52:47;16.70;77.90
1379;DHT22;683;48.738;9.226;2022-09-03T00:55:28;16.70;77.80
1379;DHT22;683;48.738;9.226;2022-09-03T01:00:49;16.70;77.80
1379;DHT22;683;48.738;9.226;2022-09-03T01:03:25;16.70;77.80
1379;DHT22;683;48.738;9.226;2022-09-03T01:06:09;16.80;77.40
1379;DHT22;683;48.738;9.226;2022-09-03T01:08:56;16.80;77.60
1379;DHT22;683;48.738;9.226;2022-09-03T01:11:32;16.80;78.30
1379;DHT22;683;48.738;9.226;2022-09-03T01:14:14;16.70;78.10
1379;DHT22;683;48.738;9.226;2022-09-03T01:16:54;16.60;78.20
1379;DHT22;683;48.738;9.226;2022-09-03T01:19:55;16.60;78.40
1379;DHT22;683;48.738;9.226;2022-09-03T01:23:07;16.60;78.70
1379;DHT22;683;48.738;9.226;2022-09-03T01:25:51;16.70;78.60
1379;DHT22;683;48.738;9.226;2022-09-03T01:28:32;16.70;79.10
1379;DHT22;683;48.738;9.226;2022-09-03T01:31:15;16.70;79.40
1379;DHT22;683;48.738;9.226;2022-09-03T01:33:51;16.60;79.50
1379;DHT22;683;48.738;9.226;2022-09-03T01:36:27;16.50;79.50
1379;DHT22;683;48.738;9.226;2022-09-03T01:39:01;16.50;79.50
1379;DHT22;683;48.738;9.226;2022-09-03T01:41:40;16.40;80.60
1379;DHT22;683;48.738;9.226;2022-09-03T01:44:36;16.40;80.40
1379;DHT22;683;48.738;9.226;2022-09-03T01:47:15;16.40;80.60
1379;DHT22;683;48.738;9.226;2022-09-03T01:49:50;16.30;80.50
1379;DHT22;683;48.738;9.226;2022-09-03T01:52:32;16.30;81.00
1379;DHT22;683;48.738;9.226;2022-09-03T01:55:09;16.30;81.40
1379;DHT22;683;48.738;9.226;2022-09-03T01:57:48;16.30;81.70
1379;DHT22;683;48.738;9.226;2022-09-03T02:00:23;16.30;82.10
1379;DHT22;683;48.738;9.226;2022-09-03T02:02:51;16.30;82.60
1379;DHT22;683;48.738;9.226;2022-09-03T02:05:20;16.20;82.40
1379;DHT22;683;48.738;9.226;2022-09-03T02:07:53;16.20;82.10
1379;DHT22;683;48.738;9.226;2022-09-03T02:10:25;16.20;82.50
1379;DHT22;683;48.738;9.226;2022-09-03T02:13:00;16.20;82.50
1379;DHT22;683;48.738;9.226;2022-09-03T02:15:32;16.10;83.00
1379;DHT22;683;48.738;9.226;2022-09-03T02:18:03;16.10;83.30
1379;DHT22;683;48.738;9.226;2022-09-03T02:20:32;16.10;83.00
1379;DHT22;683;48.738;9.226;2022-09-03T02:23:01;16.10;83.00
1379;DHT22;683;48.738;9.226;2022-09-03T02:25:32;16.00;83.40
1379;DHT22;683;48.738;9.226;2022-09-03T02:28:04;15.90;83.70
1379;DHT22;683;48.738;9.226;2022-09-03T02:30:34;16.00;83.80
1379;DHT22;683;48.738;9.226;2022-09-03T02:33:01;16.00;84.10
1379;DHT22;683;48.738;9.226;2022-09-03T02:35:29;15.90;84.10
1379;DHT22;683;48.738;9.226;2022-09-03T02:37:57;16.00;84.00
1379;DHT22;683;48.738;9.226;2022-09-03T02:40:35;16.00;84.10
1379;DHT22;683;48.738;9.226;2022-09-03T02:43:03;15.90;84.60
1379;DHT22;683;48.738;9.226;2022-09-03T02:45:35;15.70;85.10
1379;DHT22;683;48.738;9.226;2022-09-03T02:48:05;15.60;85.70
1379;DHT22;683;48.738;9.226;2022-09-03T02:50:39;15.50;85.50
1379;DHT22;683;48.738;9.226;2022-09-03T02:53:08;15.40;86.20
1379;DHT22;683;48.738;9.226;2022-09-03T02:55:35;15.30;87.10
1379;DHT22;683;48.738;9.226;2022-09-03T02:58:03;15.30;87.60
1379;DHT22;683;48.738;9.226;2022-09-03T03:00:35;15.20;87.30
1379;DHT22;683;48.738;9.226;2022-09-03T03:03:03;15.10;88.10
1379;DHT22;683;48.738;9.226;2022-09-03T03:05:40;15.10;88.50
1379;DHT22;683;48.738;9.226;2022-09-03T03:08:09;15.00;88.90
1379;DHT22;683;48.738;9.226;2022-09-03T03:10:37;15.00;89.70
1379;DHT22;683;48.738;9.226;2022-09-03T03:13:05;15.00;90.00
1379;DHT22;683;48.738;9.226;2022-09-03T03:15:32;15.00;90.10
1379;DHT22;683;48.738;9.226;2022-09-03T03:18:01;15.00;90.10
1379;DHT22;683;48.738;9.226;2022-09-03T03:20:29;15.00;90.00
1379;DHT22;683;48.738;9.226;2022-09-03T03:22:56;15.10;90.10
1379;DHT22;683;48.738;9.226;2022-09-03T03:25:24;15.00;90.10
1379;DHT22;683;48.738;9.226;2022-09-03T03:27:53;14.90;90.30
1379;DHT22;683;48.738;9.226;2022-09-03T03:30:22;14.90;90.60
1379;DHT22;683;48.738;9.226;2022-09-03T03:32:51;14.80;90.50
1379;DHT22;683;48.738;9.226;2022-09-03T03:35:21;14.80;90.40
1379;DHT22;683;48.738;9.226;2022-09-03T03:37:49;14.80;90.70
1379;DHT22;683;48.738;9.226;2022-09-03T03:40:17;14.70;90.90
1379;DHT22;683;48.738;9.226;2022-09-03T03:42:45;14.60;91.10
1379;DHT22;683;48.738;9.226;2022-09-03T03:45:12;14.60;91.60
1379;DHT22;683;48.738;9.226;2022-09-03T03:47:40;14.60;91.90
1379;DHT22;683;48.738;9.226;2022-09-03T03:50:08;14.50;91.90
1379;DHT22;683;48.738;9.226;2022-09-03T03:52:37;14.60;91.90
1379;DHT22;683;48.738;9.226;2022-09-03T03:55:05;14.50;91.90
1379;DHT22;683;48.738;9.226;2022-09-03T03:57:33;14.60;91.90
1379;DHT22;683;48.738;9.226;2022-09-03T04:00:02;14.70;91.90
1379;DHT22;683;48.738;9.226;2022-09-03T04:02:40;14.80;91.90
1379;DHT22;683;48.738;9.226;2022-09-03T04:05:08;14.90;91.80
1379;DHT22;683;48.738;9.226;2022-09-03T04:07:37;14.90;91.80
1379;DHT22;683;48.738;9.226;2022-09-03T04:10:06;14.90;91.80
1379;DHT22;683;48.738;9.226;2022-09-03T04:12:33;15.00;91.90
1379;DHT22;683;48.738;9.226;2022-09-03T04:15:01;15.00;91.90
1379;DHT22;683;48.738;9.226;2022-09-03T04:17:29;14.90;92.00
1379;DHT22;683;48.738;9.226;2022-09-03T04:19:57;14.90;92.10
1379;DHT22;683;48.738;9.226;2022-09-03T04:22:24;14.90;92.20
1379;DHT22;683;48.738;9.226;2022-09-03T04:24:53;14.90;92.10
1379;DHT22;683;48.738;9.226;2022-09-03T04:27:21;14.80;92.30
1379;DHT22;683;48.738;9.226;2022-09-03T04:29:48;14.80;92.60
1379;DHT22;683;48.738;9.226;2022-09-03T04:32:16;14.80;92.90
1379;DHT22;683;48.738;9.226;2022-09-03T04:35:01;14.70;93.10
1379;DHT22;683;48.738;9.226;2022-09-03T04:37:28;14.60;93.10
1379;DHT22;683;48.738;9.226;2022-09-03T04:39:57;14.60;93.50
1379;DHT22;683;48.738;9.226;2022-09-03T04:42:25;14.60;93.70
1379;DHT22;683;48.738;9.226;2022-09-03T04:44:53;14.60;94.00
1379;DHT22;683;48.738;9.226;2022-09-03T04:47:21;14.60;94.20
1379;DHT22;683;48.738;9.226;2022-09-03T04:49:48;14.60;94.20
1379;DHT22;683;48.738;9.226;2022-09-03T04:52:17;14.60;94.50
1379;DHT22;683;48.738;9.226;2022-09-03T04:54:45;14.60;94.50
1379;DHT22;683;48.738;9.226;2022-09-03T04:57:15;14.60;95.00
1379;DHT22;683;48.738;9.226;2022-09-03T04:59:42;14.60;94.90
1379;DHT22;683;48.738;9.226;2022-09-03T05:02:10;14.80;95.00
1379;DHT22;683;48.738;9.226;2022-09-03T05:04:37;14.70;94.80
1379;DHT22;683;48.738;9.226;2022-09-03T05:07:05;14.70;95.00
1379;DHT22;683;48.738;9.226;2022-09-03T05:09:33;14.80;95.30
1379;DHT22;683;48.738;9.226;2022-09-03T05:12:00;14.80;95.30
1379;DHT22;683;48.738;9.226;2022-09-03T05:14:29;14.90;95.20
1379;DHT22;683;48.738;9.226;2022-09-03T05:16:57;15.00;94.90
1379;DHT22;683;48.738;9.226;2022-09-03T05:19:24;15.00;94.90
1379;DHT22;683;48.738;9.226;2022-09-03T05:21:52;15.10;94.70
1379;DHT22;683;48.738;9.226;2022-09-03T05:24:19;15.10;94.90
1379;DHT22;683;48.738;9.226;2022-09-03T05:26:47;15.20;94.60
1379;DHT22;683;48.738;9.226;2022-09-03T05:29:15;15.20;94.30
1379;DHT22;683;48.738;9.226;2022-09-03T05:31:46;15.30;94.30
1379;DHT22;683;48.738;9.226;2022-09-03T05:34:13;15.30;94.40
1379;DHT22;683;48.738;9.226;2022-09-03T05:36:41;15.50;94.20
1379;DHT22;683;48.738;9.226;2022-09-03T05:39:10;15.50;94.20
1379;DHT22;683;48.738;9.226;2022-09-03T05:41:38;15.60;94.10
1379;DHT22;683;48.738;9.226;2022-09-03T05:44:05;15.60;94.20
1379;DHT22;683;48.738;9.226;2022-09-03T05:46:33;15.70;94.40
1379;DHT22;683;48.738;9.226;2022-09-03T05:49:04;15.70;94.10
1379;DHT22;683;48.738;9.226;2022-09-03T05:51:33;15.70;94.10
1379;DHT22;683;48.738;9.226;2022-09-03T05:54:02;15.70;94.30
1379;DHT22;683;48.738;9.226;2022-09-03T05:56:31;15.70;94.40
1379;DHT22;683;48.738;9.226;2022-09-03T05:59:02;15.80;94.60
1379;DHT22;683;48.738;9.226;2022-09-03T06:01:33;15.90;94.30
1379;DHT22;683;48.738;9.226;2022-09-03T06:04:05;16.00;94.20
1379;DHT22;683;48.738;9.226;2022-09-03T06:06:34;16.10;94.00
1379;DHT22;683;48.738;9.226;2022-09-03T06:09:04;16.10;94.20
1379;DHT22;683;48.738;9.226;2022-09-03T06:11:33;16.00;94.10
1379;DHT22;683;48.738;9.226;2022-09-03T06:14:03;16.00;94.30
1379;DHT22;683;48.738;9.226;2022-09-03T06:16:32;16.00;94.70
1379;DHT22;683;48.738;9.226;2022-09-03T06:19:00;16.00;94.60
1379;DHT22;683;48.738;9.226;2022-09-03T06:21:29;16.00;94.80
1379;DHT22;683;48.738;9.226;2022-09-03T06:23:58;16.00;94.80
1379;DHT22;683;48.738;9.226;2022-09-03T06:26:25;16.10;94.90
1379;DHT22;683;48.738;9.226;2022-09-03T06:28:54;16.10;94.50
1379;DHT22;683;48.738;9.226;2022-09-03T06:31:22;16.20;94.60
1379;DHT22;683;48.738;9.226;2022-09-03T06:33:50;16.30;94.50
1379;DHT22;683;48.738;9.226;2022-09-03T06:36:19;16.40;94.30
1379;DHT22;683;48.738;9.226;2022-09-03T06:38:51;16.50;94.50
1379;DHT22;683;48.738;9.226;2022-09-03T06:41:21;16.50;94.10
1379;DHT22;683;48.738;9.226;2022-09-03T06:43:51;16.50;94.60
1379;DHT22;683;48.738;9.226;2022-09-03T06:46:21;16.60;94.20
1379;DHT22;683;48.738;9.226;2022-09-03T06:48:49;16.50;94.50
1379;DHT22;683;48.738;9.226;2022-09-03T06:51:18;16.60;94.50
1379;DHT22;683;48.738;9.226;2022-09-03T06:53:49;16.70;94.30
1379;DHT22;683;48.738;9.226;2022-09-03T06:56:18;16.70;94.20
1379;DHT22;683;48.738;9.226;2022-09-03T06:58:48;16.70;94.20
1379;DHT22;683;48.738;9.226;2022-09-03T07:01:18;16.80;94.50
1379;DHT22;683;48.738;9.226;2022-09-03T07:03:47;16.90;94.10
1379;DHT22;683;48.738;9.226;2022-09-03T07:06:16;17.00;93.70
1379;DHT22;683;48.738;9.226;2022-09-03T07:08:45;17.10;93.90
1379;DHT22;683;48.738;9.226;2022-09-03T07:11:16;17.20;94.20
1379;DHT22;683;48.738;9.226;2022-09-03T07:13:46;17.30;93.90
1379;DHT22;683;48.738;9.226;2022-09-03T07:16:15;17.30;93.80
1379;DHT22;683;48.738;9.226;2022-09-03T07:18:44;17.50;94.00
1379;DHT22;683;48.738;9.226;2022-09-03T07:21:13;17.60;93.60
1379;DHT22;683;48.738;9.226;2022-09-03T07:23:42;17.70;93.60
1379;DHT22;683;48.738;9.226;2022-09-03T07:26:11;17.80;93.20
1379;DHT22;683;48.738;9.226;2022-09-03T07:28:42;18.00;93.20
1379;DHT22;683;48.738;9.226;2022-09-03T07:31:12;18.30;92.80
1379;DHT22;683;48.738;9.226;2022-09-03T07:33:41;18.50;92.40
1379;DHT22;683;48.738;9.226;2022-09-03T07:36:10;18.70;92.10
1379;DHT22;683;48.738;9.226;2022-09-03T07:38:40;18.90;91.80
1379;DHT22;683;48.738;9.226;2022-09-03T07:41:10;18.90;92.10
1379;DHT22;683;48.738;9.226;2022-09-03T07:43:41;19.10;92.00
1379;DHT22;683;48.738;9.226;2022-09-03T07:46:12;19.10;91.80
1379;DHT22;683;48.738;9.226;2022-09-03T07:48:40;19.30;91.50
1379;DHT22;683;48.738;9.226;2022-09-03T07:51:09;19.60;91.30
1379;DHT22;683;48.738;9.226;2022-09-03T07:53:36;19.80;90.90
1379;DHT22;683;48.738;9.226;2022-09-03T07:56:05;20.00;90.80
1379;DHT22;683;48.738;9.226;2022-09-03T07:58:34;20.20;90.30
1379;DHT22;683;48.738;9.226;2022-09-03T08:01:05;20.40;90.10
1379;DHT22;683;48.738;9.226;2022-09-03T08:03:34;20.40;89.90
1379;DHT22;683;48.738;9.226;2022-09-03T08:06:03;20.40;89.90
1379;DHT22;683;48.738;9.226;2022-09-03T08:08:31;20.30;90.10
1379;DHT22;683;48.738;9.226;2022-09-03T08:11:04;20.20;90.40
1379;DHT22;683;48.738;9.226;2022-09-03T08:13:33;20.50;90.70
1379;DHT22;683;48.738;9.226;2022-09-03T08:16:00;20.70;90.70
1379;DHT22;683;48.738;9.226;2022-09-03T08:18:29;20.80;89.30
1379;DHT22;683;48.738;9.226;2022-09-03T08:21:00;20.80;89.40
1379;DHT22;683;48.738;9.226;2022-09-03T08:23:28;21.00;89.30
1379;DHT22;683;48.738;9.226;2022-09-03T08:25:58;21.00;89.30
1379;DHT22;683;48.738;9.226;2022-09-03T08:28:26;21.00;89.60
1379;DHT22;683;48.738;9.226;2022-09-03T08:30:54;20.90;89.10
1379;DHT22;683;48.738;9.226;2022-09-03T08:33:21;21.10;90.00
1379;DHT22;683;48.738;9.226;2022-09-03T08:36:07;21.10;89.70
1379;DHT22;683;48.738;9.226;2022-09-03T08:38:35;21.50;89.30
1379;DHT22;683;48.738;9.226;2022-09-03T08:41:09;21.70;88.90
1379;DHT22;683;48.738;9.226;2022-09-03T08:43:53;21.80;87.70
1379;DHT22;683;48.738;9.226;2022-09-03T08:46:25;22.30;88.30
1379;DHT22;683;48.738;9.226;2022-09-03T08:48:59;22.60;86.60
1379;DHT22;683;48.738;9.226;2022-09-03T08:51:28;22.70;84.60
1379;DHT22;683;48.738;9.226;2022-09-03T08:53:57;22.80;85.90
1379;DHT22;683;48.738;9.226;2022-09-03T08:56:27;22.80;83.70
1379;DHT22;683;48.738;9.226;2022-09-03T08:58:55;22.60;84.20
1379;DHT22;683;48.738;9.226;2022-09-03T09:01:31;22.70;85.40
1379;DHT22;683;48.738;9.226;2022-09-03T09:04:09;22.80;84.20
1379;DHT22;683;48.738;9.226;2022-09-03T09:06:47;22.50;84.10
1379;DHT22;683;48.738;9.226;2022-09-03T09:09:24;22.70;84.80
1379;DHT22;683;48.738;9.226;2022-09-03T09:12:02;23.00;83.90
1379;DHT22;683;48.738;9.226;2022-09-03T09:14:35;23.20;83.60
1379;DHT22;683;48.738;9.226;2022-09-03T09:17:16;23.20;83.60
1379;DHT22;683;48.738;9.226;2022-09-03T09:19:56;23.50;83.30
1379;DHT22;683;48.738;9.226;2022-09-03T09:22:34;23.50;82.50
1379;DHT22;683;48.738;9.226;2022-09-03T09:25:09;23.30;83.30
1379;DHT22;683;48.738;9.226;2022-09-03T09:27:47;23.10;83.10
1379;DHT22;683;48.738;9.226;2022-09-03T09:30:18;22.70;83.90
1379;DHT22;683;48.738;9.226;2022-09-03T09:32:45;22.50;84.80
1379;DHT22;683;48.738;9.226;2022-09-03T09:35:13;22.40;85.00
1379;DHT22;683;48.738;9.226;2022-09-03T09:37:53;22.70;85.20
1379;DHT22;683;48.738;9.226;2022-09-03T09:40:31;22.70;84.00
1379;DHT22;683;48.738;9.226;2022-09-03T09:43:04;23.20;85.60
1379;DHT22;683;48.738;9.226;2022-09-03T09:45:31;23.10;83.20
1379;DHT22;683;48.738;9.226;2022-09-03T09:48:02;23.00;81.70
1379;DHT22;683;48.738;9.226;2022-09-03T09:50:36;23.10;83.70
1379;DHT22;683;48.738;9.226;2022-09-03T09:53:07;22.40;83.00
1379;DHT22;683;48.738;9.226;2022-09-03T09:55:51;22.30;84.80
1379;DHT22;683;48.738;9.226;2022-09-03T09:58:20;22.60;84.00
1379;DHT22;683;48.738;9.226;2022-09-03T10:01:10;23.00;84.50
1379;DHT22;683;48.738;9.226;2022-09-03T10:03:47;23.60;83.10
1379;DHT22;683;48.738;9.226;2022-09-03T10:06:15;24.00;82.00
1379;DHT22;683;48.738;9.226;2022-09-03T10:09:10;24.20;80.60
1379;DHT22;683;48.738;9.226;2022-09-03T10:11:42;24.00;79.30
1379;DHT22;683;48.738;9.226;2022-09-03T10:14:17;24.20;78.50
1379;DHT22;683;48.738;9.226;2022-09-03T10:16:48;24.00;77.90
1379;DHT22;683;48.738;9.226;2022-09-03T10:19:21;24.20;79.30
1379;DHT22;683;48.738;9.226;2022-09-03T10:21:54;24.10;78.40
1379;DHT22;683;48.738;9.226;2022-09-03T10:24:34;24.00;79.10
1379;DHT22;683;48.738;9.226;2022-09-03T10:27:07;23.80;80.10
1379;DHT22;683;48.738;9.226;2022-09-03T10:29:39;23.70;79.20
1379;DHT22;683;48.738;9.226;2022-09-03T10:32:20;23.80;78.80
1379;DHT22;683;48.738;9.226;2022-09-03T10:34:57;23.80;77.80
1379;DHT22;683;48.738;9.226;2022-09-03T10:37:34;23.70;79.30
1379;DHT22;683;48.738;9.226;2022-09-03T10:40:21;23.80;78.00
1379;DHT22;683;48.738;9.226;2022-09-03T10:43:06;24.00;78.20
1379;DHT22;683;48.738;9.226;2022-09-03T10:45:40;24.10;78.80
1379;DHT22;683;48.738;9.226;2022-09-03T10:48:26;24.40;78.30
1379;DHT22;683;48.738;9.226;2022-09-03T10:51:02;24.90;76.40
1379;DHT22;683;48.738;9.226;2022-09-03T10:53:43;25.00;76.30
1379;DHT22;683;48.738;9.226;2022-09-03T10:56:20;25.00;74.50
1379;DHT22;683;48.738;9.226;2022-09-03T10:59:03;24.90;75.20
1379;DHT22;683;48.738;9.226;2022-09-03T11:01:40;25.30;76.20
1379;DHT22;683;48.738;9.226;2022-09-03T11:04:19;25.20;73.80
1379;DHT22;683;48.738;9.226;2022-09-03T11:06:51;25.00;72.90
1379;DHT22;683;48.738;9.226;2022-09-03T11:09:24;24.70;74.40
1379;DHT22;683;48.738;9.226;2022-09-03T11:11:56;24.70;76.20
1379;DHT22;683;48.738;9.226;2022-09-03T11:14:33;24.70;76.40
1379;DHT22;683;48.738;9.226;2022-09-03T11:17:06;24.70;75.10
1379;DHT22;683;48.738;9.226;2022-09-03T11:19:41;24.70;76.30
1379;DHT22;683;48.738;9.226;2022-09-03T11:22:13;24.50;75.30
1379;DHT22;683;48.738;9.226;2022-09-03T11:24:47;24.40;75.70
1379;DHT22;683;48.738;9.226;2022-09-03T11:27:30;24.20;76.80
1379;DHT22;683;48.738;9.226;2022-09-03T11:30:02;24.20;77.30
1379;DHT22;683;48.738;9.226;2022-09-03T11:32:44;24.20;77.60
1379;DHT22;683;48.738;9.226;2022-09-03T11:35:23;24.10;77.30
1379;DHT22;683;48.738;9.226;2022-09-03T11:37:57;23.70;78.20
1379;DHT22;683;48.738;9.226;2022-09-03T11:40:31;23.50;77.80
1379;DHT22;683;48.738;9.226;2022-09-03T11:43:24;23.40;79.70
1379;DHT22;683;48.738;9.226;2022-09-03T11:46:02;23.30;79.80
1379;DHT22;683;48.738;9.226;2022-09-03T11:48:35;23.40;80.50
1379;DHT22;683;48.738;9.226;2022-09-03T11:51:03;23.30;80.60
1379;DHT22;683;48.738;9.226;2022-09-03T11:53:35;23.20;81.00
1379;DHT22;683;48.738;9.226;2022-09-03T11:56:16;22.90;81.10
1379;DHT22;683;48.738;9.226;2022-09-03T11:58:57;22.70;82.10
1379;DHT22;683;48.738;9.226;2022-09-03T12:01:26;22.40;82.00
1379;DHT22;683;48.738;9.226;2022-09-03T12:03:59;22.20;84.30
1379;DHT22;683;48.738;9.226;2022-09-03T12:06:56;21.80;84.50
1379;DHT22;683;48.738;9.226;2022-09-03T12:12:40;21.50;90.10
1379;DHT22;683;48.738;9.226;2022-09-03T12:15:29;21.30;91.00
1379;DHT22;683;48.738;9.226;2022-09-03T12:18:03;21.10;91.50
1379;DHT22;683;48.738;9.226;2022-09-03T12:20:46;20.90;92.30
1379;DHT22;683;48.738;9.226;2022-09-03T12:23:26;20.70;93.60
1379;DHT22;683;48.738;9.226;2022-09-03T12:25:54;20.50;94.70
1379;DHT22;683;48.738;9.226;2022-09-03T12:28:23;20.10;95.70
1379;DHT22;683;48.738;9.226;2022-09-03T12:30:53;19.60;97.60
1379;DHT22;683;48.738;9.226;2022-09-03T12:33:22;19.00;98.90
1379;DHT22;683;48.738;9.226;2022-09-03T12:35:56;18.50;99.90
1379;DHT22;683;48.738;9.226;2022-09-03T12:38:24;18.00;99.90
1379;DHT22;683;48.738;9.226;2022-09-03T12:40:52;17.70;99.90
1379;DHT22;683;48.738;9.226;2022-09-03T12:43:26;17.50;99.90
1379;DHT22;683;48.738;9.226;2022-09-03T12:45:55;17.30;99.90
1379;DHT22;683;48.738;9.226;2022-09-03T12:48:23;17.10;99.90
1379;DHT22;683;48.738;9.226;2022-09-03T12:51:01;17.00;99.90
1379;DHT22;683;48.738;9.226;2022-09-03T12:53:30;16.80;99.90
1379;DHT22;683;48.738;9.226;2022-09-03T12:56:00;16.60;99.90
1379;DHT22;683;48.738;9.226;2022-09-03T12:58:33;16.40;99.90
1379;DHT22;683;48.738;9.226;2022-09-03T13:01:07;16.20;99.90
1379;DHT22;683;48.738;9.226;2022-09-03T13:03:44;16.10;99.90
1379;DHT22;683;48.738;9.226;2022-09-03T13:06:17;16.10;99.90
1379;DHT22;683;48.738;9.226;2022-09-03T13:08:49;16.20;99.90
1379;DHT22;683;48.738;9.226;2022-09-03T13:11:20;16.20;99.90
1379;DHT22;683;48.738;9.226;2022-09-03T13:13:53;16.20;99.90
1379;DHT22;683;48.738;9.226;2022-09-03T13:16:50;16.10;99.90
1379;DHT22;683;48.738;9.226;2022-09-03T13:19:25;16.10;99.90
1379;DHT22;683;48.738;9.226;2022-09-03T13:22:05;16.10;99.90
1379;DHT22;683;48.738;9.226;2022-09-03T13:24:51;16.20;99.90
1379;DHT22;683;48.738;9.226;2022-09-03T13:27:26;16.40;99.90
1379;DHT22;683;48.738;9.226;2022-09-03T13:30:03;16.60;99.90
1379;DHT22;683;48.738;9.226;2022-09-03T13:32:40;16.70;99.90
1379;DHT22;683;48.738;9.226;2022-09-03T13:35:15;17.00;99.90
1379;DHT22;683;48.738;9.226;2022-09-03T13:37:46;17.10;99.90
1379;DHT22;683;48.738;9.226;2022-09-03T13:40:21;17.30;99.90
1379;DHT22;683;48.738;9.226;2022-09-03T13:42:53;17.60;99.90
1379;DHT22;683;48.738;9.226;2022-09-03T13:45:28;17.90;99.90
1379;DHT22;683;48.738;9.226;2022-09-03T13:48:05;18.20;99.90
1379;DHT22;683;48.738;9.226;2022-09-03T13:50:58;18.50;99.90
1379;DHT22;683;48.738;9.226;2022-09-03T13:53:41;18.60;99.90
1379;DHT22;683;48.738;9.226;2022-09-03T13:56:20;19.00;99.90
1379;DHT22;683;48.738;9.226;2022-09-03T13:58:57;19.70;99.90
1379;DHT22;683;48.738;9.226;2022-09-03T14:01:44;20.40;99.90
1379;DHT22;683;48.738;9.226;2022-09-03T14:04:32;20.70;99.90
1379;DHT22;683;48.738;9.226;2022-09-03T14:07:05;21.90;99.90
1379;DHT22;683;48.738;9.226;2022-09-03T14:09:40;24.00;99.90
1379;DHT22;683;48.738;9.226;2022-09-03T14:12:14;25.60;96.50
1379;DHT22;683;48.738;9.226;2022-09-03T14:14:51;26.40;94.60
1379;DHT22;683;48.738;9.226;2022-09-03T14:17:30;26.50;92.20
1379;DHT22;683;48.738;9.226;2022-09-03T14:20:03;25.80;91.80
1379;DHT22;683;48.738;9.226;2022-09-03T14:22:44;25.30;92.80
1379;DHT22;683;48.738;9.226;2022-09-03T14:25:15;25.60;92.40
1379;DHT22;683;48.738;9.226;2022-09-03T14:27:43;26.60;91.40
1379;DHT22;683;48.738;9.226;2022-09-03T14:30:19;27.60;88.10
1379;DHT22;683;48.738;9.226;2022-09-03T14:32:57;28.80;81.00
1379;DHT22;683;48.738;9.226;2022-09-03T14:35:36;28.60;79.50
1379;DHT22;683;48.738;9.226;2022-09-03T14:38:17;29.00;79.20
1379;DHT22;683;48.738;9.226;2022-09-03T14:40:57;29.20;77.10
1379;DHT22;683;48.738;9.226;2022-09-03T14:43:46;28.10;78.00
1379;DHT22;683;48.738;9.226;2022-09-03T14:46:22;27.20;79.60
1379;DHT22;683;48.738;9.226;2022-09-03T14:52:06;25.90;83.20
1379;DHT22;683;48.738;9.226;2022-09-03T14:55:08;25.90;84.30
1379;DHT22;683;48.738;9.226;2022-09-03T15:00:35;27.20;81.90
1379;DHT22;683;48.738;9.226;2022-09-03T15:03:38;29.70;76.90
1379;DHT22;683;48.738;9.226;2022-09-03T15:06:27;31.20;69.10
1379;DHT22;683;48.738;9.226;2022-09-03T15:09:14;32.40;64.40
1379;DHT22;683;48.738;9.226;2022-09-03T15:11:49;31.20;62.40
1379;DHT22;683;48.738;9.226;2022-09-03T15:14:23;31.90;62.90
1379;DHT22;683;48.738;9.226;2022-09-03T15:16:58;32.00;60.00
1379;DHT22;683;48.738;9.226;2022-09-03T15:22:55;30.70;63.10
1379;DHT22;683;48.738;9.226;2022-09-03T15:25:33;31.00;62.10
1379;DHT22;683;48.738;9.226;2022-09-03T15:28:12;31.90;61.50
1379;DHT22;683;48.738;9.226;2022-09-03T15:30:47;31.90;58.70
1379;DHT22;683;48.738;9.226;2022-09-03T15:33:27;30.10;63.00
1379;DHT22;683;48.738;9.226;2022-09-03T15:36:05;28.50;66.60
1379;DHT22;683;48.738;9.226;2022-09-03T15:38:43;28.70;68.60
1379;DHT22;683;48.738;9.226;2022-09-03T15:41:36;30.10;66.40
1379;DHT22;683;48.738;9.226;2022-09-03T15:44:10;31.80;63.40
1379;DHT22;683;48.738;9.226;2022-09-03T15:46:53;33.90;58.50
1379;DHT22;683;48.738;9.226;2022-09-03T15:49:35;34.70;55.60
1379;DHT22;683;48.738;9.226;2022-09-03T15:52:14;34.50;54.20
1379;DHT22;683;48.738;9.226;2022-09-03T15:54:57;33.00;56.90
1379;DHT22;683;48.738;9.226;2022-09-03T15:57:34;31.90;59.50
1379;DHT22;683;48.738;9.226;2022-09-03T16:00:07;31.10;60.80
1379;DHT22;683;48.738;9.226;2022-09-03T16:02:41;29.80;62.70
1379;DHT22;683;48.738;9.226;2022-09-03T16:05:15;28.50;67.70
1379;DHT22;683;48.738;9.226;2022-09-03T16:08:01;28.00;70.00
1379;DHT22;683;48.738;9.226;2022-09-03T16:11:00;28.50;70.60
1379;DHT22;683;48.738;9.226;2022-09-03T16:13:44;29.00;68.10
1379;DHT22;683;48.738;9.226;2022-09-03T16:16:21;29.80;67.20
1379;DHT22;683;48.738;9.226;2022-09-03T16:19:00;29.20;67.70
1379;DHT22;683;48.738;9.226;2022-09-03T16:21:35;28.20;69.40
1379;DHT22;683;48.738;9.226;2022-09-03T16:24:11;26.80;72.90
1379;DHT22;683;48.738;9.226;2022-09-03T16:26:48;25.90;77.30
1379;DHT22;683;48.738;9.226;2022-09-03T16:29:24;25.40;78.70
1379;DHT22;683;48.738;9.226;2022-09-03T16:32:22;24.80;81.00
1379;DHT22;683;48.738;9.226;2022-09-03T16:35:03;24.30;82.50
1379;DHT22;683;48.738;9.226;2022-09-03T16:37:38;23.50;86.30
1379;DHT22;683;48.738;9.226;2022-09-03T16:40:16;22.70;90.30
1379;DHT22;683;48.738;9.226;2022-09-03T16:42:52;22.30;91.60
1379;DHT22;683;48.738;9.226;2022-09-03T16:45:31;22.00;92.60
1379;DHT22;683;48.738;9.226;2022-09-03T16:48:14;21.70;93.20
1379;DHT22;683;48.738;9.226;2022-09-03T16:50:55;21.60;94.20
1379;DHT22;683;48.738;9.226;2022-09-03T16:53:38;21.50;94.30
1379;DHT22;683;48.738;9.226;2022-09-03T16:56:18;21.20;95.10
1379;DHT22;683;48.738;9.226;2022-09-03T16:58:52;21.30;96.40
1379;DHT22;683;48.738;9.226;2022-09-03T17:01:41;21.40;97.10
1379;DHT22;683;48.738;9.226;2022-09-03T17:04:33;21.40;97.30
1379;DHT22;683;48.738;9.226;2022-09-03T17:07:17;21.60;96.90
1379;DHT22;683;48.738;9.226;2022-09-03T17:09:58;21.70;96.60
1379;DHT22;683;48.738;9.226;2022-09-03T17:12:34;22.00;96.00
1379;DHT22;683;48.738;9.226;2022-09-03T17:15:15;21.80;95.90
1379;DHT22;683;48.738;9.226;2022-09-03T17:21:08;21.40;96.60